»·PEaware :: N149CD KLGB-KCMA

N149CD :: KLGB-KCMA

FLIGHT INFORMATION

Flight Status: Arrived
Operator: Privately registered:
United States
More flights under this callsign
Pilot: Nathan E. (30132)
Aircraft: CIRRUS SR-22
(SR22)
More flights by this aircraft type
Origin: KLGB Long Beach
United States
Destination: KCMA Camarillo
United States
More flights between these airports :: More routes between these airports
Route: SLI V23 POPPR SMO125 SMO VNY
File this flight plan on PilotEdge
Remarks: TEC route CSTP24
Altitude:
(Current/Filed)
4,000ft
Speed:
(Current/Filed)
170kts
Departed: 03-Jan-21 03:20 PM
Arrived: 03-Jan-21 03:47 PM
Distance/Time
Traveled:
52nm/0:26
Distance/Time
To Go:
Arrived

Flight Plot

Page will automatically refresh every two minutes.


Map Options




Map Legend


Flown Route
Filed Route
Departure Airport
Arrival Airport
Navaid (VOR, NDB)
Fix

Horizontal Profiles

Position Reports

Time Latitude Longitude Heading Altitude Ground
Speed
03-Jan-21 14:57 33.812682 -118.154101 89 42ft 0kts
03-Jan-21 14:58 33.812682 -118.154101 89 42ft 0kts
03-Jan-21 14:59 33.812682 -118.154101 89 42ft 0kts
03-Jan-21 15:00 33.812682 -118.154101 89 42ft 0kts
03-Jan-21 15:01 33.812682 -118.154101 89 42ft 0kts
03-Jan-21 15:02 33.812682 -118.154101 89 42ft 0kts
03-Jan-21 15:03 33.812682 -118.154101 89 42ft 0kts
03-Jan-21 15:04 33.812682 -118.154101 89 42ft 0kts
03-Jan-21 15:05 33.812682 -118.154101 89 42ft 0kts
03-Jan-21 15:06 33.812682 -118.154101 89 42ft 0kts
03-Jan-21 15:07 33.812682 -118.154101 89 42ft 0kts
03-Jan-21 15:08 33.812682 -118.154101 89 42ft 0kts
03-Jan-21 15:09 33.812682 -118.154101 89 42ft 0kts
03-Jan-21 15:10 33.812682 -118.154101 89 42ft 0kts
03-Jan-21 15:11 33.812682 -118.154101 89 42ft 0kts
03-Jan-21 15:12 33.813120 -118.153713 90 40ft 9kts
03-Jan-21 15:13 33.813122 -118.148489 90 36ft 15kts
03-Jan-21 15:14 33.813404 -118.148249 290 36ft 0kts
03-Jan-21 15:15 33.813404 -118.148249 290 36ft 0kts
03-Jan-21 15:16 33.813404 -118.148249 290 36ft 0kts
03-Jan-21 15:17 33.813404 -118.148249 290 36ft 0kts
03-Jan-21 15:18 33.813394 -118.148344 254 36ft 4kts
03-Jan-21 15:19 33.813913 -118.156993 265 114ft 93kts
03-Jan-21 15:20 33.815198 -118.198543 281 1078ft 130kts
03-Jan-21 15:21 33.823634 -118.238023 282 2557ft 115kts
03-Jan-21 15:23 33.831607 -118.276258 284 3456ft 116kts
03-Jan-21 15:24 33.856461 -118.303254 316 4013ft 125kts
03-Jan-21 15:25 33.887309 -118.333944 323 4028ft 157kts
03-Jan-21 15:26 33.921919 -118.368201 315 4007ft 156kts
03-Jan-21 15:27 33.955531 -118.401929 315 4006ft 155kts
03-Jan-21 15:28 33.989956 -118.436404 315 3994ft 156kts
03-Jan-21 15:29 34.022611 -118.472017 311 3992ft 154kts
03-Jan-21 15:30 34.053582 -118.508059 311 3990ft 152kts
03-Jan-21 15:31 34.083994 -118.544071 310 3989ft 149kts
03-Jan-21 15:32 34.113149 -118.580867 309 3986ft 149kts
03-Jan-21 15:33 34.142055 -118.617538 309 3985ft 150kts
03-Jan-21 15:34 34.169698 -118.652604 307 3964ft 122kts
03-Jan-21 15:35 34.190998 -118.679747 306 3997ft 110kts
03-Jan-21 15:36 34.215119 -118.710447 308 3985ft 126kts
03-Jan-21 15:37 34.219198 -118.744600 258 3994ft 106kts
03-Jan-21 15:38 34.213396 -118.783452 258 3991ft 117kts
03-Jan-21 15:38 34.211233 -118.815303 269 3810ft 113kts
03-Jan-21 15:39 34.211586 -118.852735 268 3292ft 112kts
03-Jan-21 15:40 34.212041 -118.889905 267 3191ft 110kts
03-Jan-21 15:42 34.212330 -118.933485 268 2547ft 111kts
03-Jan-21 15:42 34.212630 -118.964729 268 2040ft 107kts
03-Jan-21 15:43 34.212960 -119.001817 268 1458ft 117kts
03-Jan-21 15:44 34.213304 -119.039861 267 872ft 94kts
03-Jan-21 15:45 34.213562 -119.069512 267 320ft 81kts
03-Jan-21 15:46 34.213749 -119.092741 270 66ft 38kts
03-Jan-21 15:47 34.212817 -119.095661 197 64ft 0kts
03-Jan-21 15:48 34.211243 -119.094979 121 64ft 15kts
03-Jan-21 15:49 34.210760 -119.092208 44 65ft 0kts
03-Jan-21 15:50 34.210760 -119.092208 44 65ft 0kts

Navigation Log

Ident Type
Flight plan parsing failed, navigation log unavailable